Time;durP1;ratioP1;P1;durP2;ratioP2;P2;SDS_P1;SDS_P2;PMS_P1;PMS_P2;Temp;Humidity;BMP_temperature;BMP_pressure;BME280_temperature;BME280_humidity;BME280_pressure;Samples;Min_cycle;Max_cycle;Signal;HPM_P1;HPM_P2
2023/05/30 00:02:06;;;;;;;16.85;4.45;;;;;;;;;;4451527;32;20041;-73
2023/05/30 00:04:31;;;;;;;;;;;;;;;;;;4451741;32;20025;-73
2023/05/30 00:06:57;;;;;;;19.02;4.80;;;;;;;;;;4451716;32;20294;-72
2023/05/30 00:09:22;;;;;;;17.73;3.58;;;;;;;;;;4451294;32;20097;-73
2023/05/30 00:11:48;;;;;;;;;;;;;;;;;;4439973;32;20100;-72
2023/05/30 00:14:20;;;;;;;18.80;6.37;;;;;;;;;;4453099;32;19937;-73
2023/05/30 00:16:45;;;;;;;11.90;4.18;;;;;;;;;;4453905;32;20059;-73
2023/05/30 00:19:10;;;;;;;23.90;3.95;;;;;;;;;;4454466;32;20030;-73
2023/05/30 00:21:35;;;;;;;;;;;;;;;;;;4454094;32;20068;-73
2023/05/30 00:24:02;;;;;;;30.80;4.53;;;;;;;;;;4453282;32;19970;-72
2023/05/30 00:26:27;;;;;;;18.87;4.28;;;;;;;;;;4439960;32;20030;-73
2023/05/30 00:28:52;;;;;;;14.48;3.55;;;;;;;;;;4455774;32;20444;-72
2023/05/30 00:31:18;;;;;;;;;;;;;;;;;;4454413;32;20033;-72
2023/05/30 00:33:43;;;;;;;14.98;3.25;;;;;;;;;;4441113;32;20211;-72
2023/05/30 00:36:09;;;;;;;;;;;;;;;;;;4454691;32;20050;-73
2023/05/30 00:38:34;;;;;;;14.55;3.72;;;;;;;;;;4453785;32;19951;-73
2023/05/30 00:40:59;;;;;;;;;;;;;;;;;;4438011;32;20156;-73
2023/05/30 00:43:24;;;;;;;20.42;3.58;;;;;;;;;;4439113;32;19969;-73
2023/05/30 00:45:49;;;;;;;;;;;;;;;;;;4439354;32;20198;-73
2023/05/30 00:48:14;;;;;;;18.27;4.32;;;;;;;;;;4437713;32;20311;-74
2023/05/30 00:50:40;;;;;;;21.00;4.00;;;;;;;;;;4437825;32;20092;-73
2023/05/30 00:53:05;;;;;;;;;;;;;;;;;;4440298;32;20433;-73
2023/05/30 00:55:30;;;;;;;19.95;3.85;;;;;;;;;;4438653;32;19964;-72
2023/05/30 00:57:56;;;;;;;21.62;5.18;;;;;;;;;;4439442;32;20030;-73
2023/05/30 01:00:24;;;;;;;;;;;;;;;;;;4439716;32;20034;-72
2023/05/30 01:02:50;;;;;;;21.23;4.55;;;;;;;;;;4437932;32;19948;-72
2023/05/30 01:05:15;;;;;;;17.08;3.87;;;;;;;;;;4437037;32;20060;-72
2023/05/30 01:07:43;;;;;;;24.70;4.40;;;;;;;;;;4423659;32;20060;-73
2023/05/30 01:10:10;;;;;;;20.77;4.05;;;;;;;;;;4434390;32;20474;-73
2023/05/30 01:12:42;;;;;;;17.67;4.20;;;;;;;;;;4454248;32;20083;-73
2023/05/30 01:15:10;;;;;;;23.50;4.10;;;;;;;;;;4452325;32;20034;-73
2023/05/30 01:17:45;;;;;;;17.33;3.92;;;;;;;;;;4452854;32;20037;-74
2023/05/30 01:20:11;;;;;;;22.23;4.70;;;;;;;;;;4451751;32;20500;-72
2023/05/30 01:22:52;;;;;;;18.33;3.70;;;;;;;;;;4452911;32;20025;-72
2023/05/30 01:25:38;;;;;;;15.20;4.30;;;;;;;;;;4452650;32;20063;-72
2023/05/30 01:28:12;;;;;;;17.45;4.22;;;;;;;;;;4453351;32;20267;-73
2023/05/30 01:30:44;;;;;;;19.87;4.00;;;;;;;;;;4452566;32;20033;-72
2023/05/30 01:33:10;;;;;;;18.62;4.28;;;;;;;;;;4453635;32;20025;-73
2023/05/30 01:35:35;;;;;;;13.15;4.10;;;;;;;;;;4453232;32;20056;-71
2023/05/30 01:38:00;;;;;;;21.02;4.43;;;;;;;;;;4439819;32;20494;-72
2023/05/30 01:40:26;;;;;;;18.15;4.28;;;;;;;;;;4438417;32;20355;-71
2023/05/30 01:42:57;;;;;;;14.77;3.80;;;;;;;;;;4422880;32;20082;-72
2023/05/30 01:45:42;;;;;;;18.70;4.57;;;;;;;;;;4438819;32;20010;-72
2023/05/30 01:48:07;;;;;;;15.23;4.10;;;;;;;;;;4436593;32;20355;-72
2023/05/30 01:50:37;;;;;;;18.25;4.87;;;;;;;;;;4438670;32;20048;-73
2023/05/30 01:53:04;;;;;;;16.55;4.30;;;;;;;;;;4436983;32;20033;-73
2023/05/30 01:55:30;;;;;;;24.08;6.12;;;;;;;;;;4436520;32;20505;-71
2023/05/30 01:57:56;;;;;;;22.13;4.82;;;;;;;;;;4436616;32;20039;-72
2023/05/30 02:00:21;;;;;;;;;;;;;;;;;;4437459;32;20018;-71
2023/05/30 02:02:47;;;;;;;16.20;4.82;;;;;;;;;;4421983;32;19955;-71
2023/05/30 02:05:12;;;;;;;;;;;;;;;;;;4436945;32;20384;-71
2023/05/30 02:07:37;;;;;;;20.48;3.87;;;;;;;;;;4436806;32;19937;-72
2023/05/30 02:10:02;;;;;;;;;;;;;;;;;;4423468;32;20388;-72
2023/05/30 02:12:28;;;;;;;15.07;4.15;;;;;;;;;;4422631;32;20283;-72
2023/05/30 02:14:54;;;;;;;;;;;;;;;;;;4436928;32;20121;-73
2023/05/30 02:17:21;;;;;;;17.42;3.97;;;;;;;;;;4422764;32;19943;-72
2023/05/30 02:19:46;;;;;;;16.50;5.10;;;;;;;;;;4437340;32;20225;-72
2023/05/30 02:22:11;;;;;;;;;;;;;;;;;;4437219;32;20029;-71
2023/05/30 02:24:36;;;;;;;12.82;3.80;;;;;;;;;;4439258;32;19933;-71
2023/05/30 02:27:02;;;;;;;14.75;4.20;;;;;;;;;;4436370;32;20013;-71
2023/05/30 02:29:27;;;;;;;15.10;4.50;;;;;;;;;;4424225;32;20147;-72
2023/05/30 02:31:52;;;;;;;;;;;;;;;;;;4438599;32;20415;-72
2023/05/30 02:34:17;;;;;;;22.67;5.10;;;;;;;;;;4436813;32;19936;-72
2023/05/30 02:36:43;;;;;;;12.77;4.30;;;;;;;;;;4435694;32;20068;-72
2023/05/30 02:39:09;;;;;;;16.58;5.78;;;;;;;;;;4422462;32;20025;-72
2023/05/30 02:41:36;;;;;;;21.85;4.72;;;;;;;;;;4422004;32;20022;-72
2023/05/30 02:44:01;;;;;;;10.20;4.45;;;;;;;;;;4422625;32;20479;-72
2023/05/30 02:46:26;;;;;;;16.15;3.92;;;;;;;;;;4436923;32;20021;-72
2023/05/30 02:48:52;;;;;;;;;;;;;;;;;;4424088;32;20305;-72
2023/05/30 02:51:17;;;;;;;17.58;4.68;;;;;;;;;;4436648;32;19937;-72
2023/05/30 02:53:42;;;;;;;21.12;4.90;;;;;;;;;;4436366;32;20049;-72
2023/05/30 02:56:07;;;;;;;;;;;;;;;;;;4435587;32;20030;-72
2023/05/30 02:58:32;;;;;;;21.73;4.20;;;;;;;;;;4435053;32;19934;-71
2023/05/30 03:00:57;;;;;;;12.52;4.03;;;;;;;;;;4422049;32;20030;-72
2023/05/30 03:03:24;;;;;;;;;;;;;;;;;;4436606;32;20017;-72
2023/05/30 03:05:50;;;;;;;11.02;4.18;;;;;;;;;;4436339;32;19933;-72
2023/05/30 03:08:15;;;;;;;;;;;;;;;;;;4437136;32;20048;-72
2023/05/30 03:10:40;;;;;;;14.80;4.37;;;;;;;;;;4437134;32;19940;-71
2023/05/30 03:13:05;;;;;;;;;;;;;;;;;;4436851;32;20018;-72
2023/05/30 03:15:31;;;;;;;25.15;5.43;;;;;;;;;;4437764;32;19963;-71
2023/05/30 03:17:57;;;;;;;27.90;5.82;;;;;;;;;;4435745;32;20116;-72
2023/05/30 03:20:23;;;;;;;20.42;4.57;;;;;;;;;;4436653;32;20430;-72
2023/05/30 03:22:48;;;;;;;18.58;4.60;;;;;;;;;;4435667;32;20026;-72
2023/05/30 03:25:13;;;;;;;;;;;;;;;;;;4436434;32;20373;-71
2023/05/30 03:27:38;;;;;;;21.62;4.68;;;;;;;;;;4435520;32;19945;-73
2023/05/30 03:30:04;;;;;;;19.73;4.57;;;;;;;;;;4435362;32;20391;-72
2023/05/30 03:32:29;;;;;;;17.42;5.80;;;;;;;;;;4421397;32;20499;-72
2023/05/30 03:34:54;;;;;;;14.15;4.22;;;;;;;;;;4435794;32;20138;-72
2023/05/30 03:37:20;;;;;;;16.62;4.10;;;;;;;;;;4448319;32;20057;-72
2023/05/30 03:39:45;;;;;;;;;;;;;;;;;;4451946;32;20124;-72
2023/05/30 03:42:10;;;;;;;17.90;5.28;;;;;;;;;;4451102;32;19964;-72
2023/05/30 03:44:35;;;;;;;15.68;4.53;;;;;;;;;;4449668;32;20440;-72
2023/05/30 03:47:00;;;;;;;;;;;;;;;;;;4451458;32;20021;-71
2023/05/30 03:49:25;;;;;;;14.63;4.60;;;;;;;;;;4451191;32;20241;-72
2023/05/30 03:51:51;;;;;;;;;;;;;;;;;;4452021;32;20161;-72
2023/05/30 03:54:16;;;;;;;21.50;6.68;;;;;;;;;;4450836;32;20282;-71
2023/05/30 03:56:41;;;;;;;;;;;;;;;;;;4451526;32;20022;-72
2023/05/30 03:59:07;;;;;;;13.68;3.83;;;;;;;;;;4437967;32;19947;-71
2023/05/30 04:01:33;;;;;;;14.65;5.30;;;;;;;;;;4451818;32;20021;-72
2023/05/30 04:03:58;;;;;;;;;;;;;;;;;;4453074;32;20025;-71
2023/05/30 04:06:24;;;;;;;12.35;4.32;;;;;;;;;;4450968;32;19947;-72
2023/05/30 04:08:49;;;;;;;17.40;4.82;;;;;;;;;;4450619;32;20063;-72
2023/05/30 04:11:15;;;;;;;15.93;5.05;;;;;;;;;;4425488;32;20034;-71
2023/05/30 04:13:40;;;;;;;12.10;4.53;;;;;;;;;;4435847;32;20057;-72
2023/05/30 04:16:05;;;;;;;14.70;4.28;;;;;;;;;;4435669;32;20429;-72
2023/05/30 04:18:30;;;;;;;12.15;4.40;;;;;;;;;;4435034;32;20066;-72
2023/05/30 04:20:55;;;;;;;11.98;3.95;;;;;;;;;;4435680;32;20018;-71
2023/05/30 04:23:22;;;;;;;;;;;;;;;;;;4436670;32;20351;-71
2023/05/30 04:25:48;;;;;;;19.42;4.93;;;;;;;;;;4421546;32;19949;-71
2023/05/30 04:28:16;;;;;;;12.45;4.10;;;;;;;;;;4421448;32;20096;-72
2023/05/30 04:30:42;;;;;;;10.90;4.57;;;;;;;;;;4421430;32;20044;-71
2023/05/30 04:33:07;;;;;;;22.52;5.22;;;;;;;;;;4421049;32;20045;-71
2023/05/30 04:35:33;;;;;;;;;;;;;;;;;;4425563;32;20030;-71
2023/05/30 04:37:58;;;;;;;13.75;4.45;;;;;;;;;;4452318;32;19951;-71
2023/05/30 04:40:25;;;;;;;;;;;;;;;;;;4450750;32;20022;-72
2023/05/30 04:42:51;;;;;;;11.07;4.55;;;;;;;;;;4451415;32;19945;-71
2023/05/30 04:45:16;;;;;;;10.85;4.37;;;;;;;;;;4450530;32;20022;-72
2023/05/30 04:47:44;;;;;;;11.93;4.50;;;;;;;;;;4452065;32;20048;-71
2023/05/30 04:50:10;;;;;;;15.52;4.50;;;;;;;;;;4451598;32;20037;-72
2023/05/30 04:52:35;;;;;;;14.13;4.22;;;;;;;;;;4451954;32;20020;-71
2023/05/30 04:55:00;;;;;;;;;;;;;;;;;;4452569;32;20037;-72
2023/05/30 04:57:25;;;;;;;7.82;3.55;;;;;;;;;;4440622;32;19971;-72
2023/05/30 04:59:52;;;;;;;;;;;;;;;;;;4454279;32;20518;-72
2023/05/30 05:02:18;;;;;;;11.93;4.50;;;;;;;;;;4453692;32;19932;-71
2023/05/30 05:04:43;;;;;;;12.15;4.22;;;;;;;;;;4440943;32;20022;-72
2023/05/30 05:07:08;;;;;;;;;;;;;;;;;;4452919;32;20047;-72
2023/05/30 05:09:33;;;;;;;13.82;4.45;;;;;;;;;;4453283;32;19936;-71
2023/05/30 05:12:00;;;;;;;16.08;4.87;;;;;;;;;;4452987;32;20051;-71
2023/05/30 05:14:25;;;;;;;11.60;4.53;;;;;;;;;;4454568;32;20017;-71
2023/05/30 05:16:50;;;;;;;17.80;5.43;;;;;;;;;;4439264;32;20025;-71
2023/05/30 05:19:15;;;;;;;;;;;;;;;;;;4455175;32;20020;-73
2023/05/30 05:21:41;;;;;;;15.23;6.20;;;;;;;;;;4454140;32;19964;-71
2023/05/30 05:24:07;;;;;;;13.25;4.53;;;;;;;;;;4454000;32;20040;-71
2023/05/30 05:26:32;;;;;;;;;;;;;;;;;;4455347;32;20021;-71
2023/05/30 05:28:58;;;;;;;16.95;6.95;;;;;;;;;;4447813;32;19986;-71
2023/05/30 05:31:23;;;;;;;;;;;;;;;;;;4446618;32;20148;-71
2023/05/30 05:33:48;;;;;;;8.95;3.83;;;;;;;;;;4444732;32;19941;-73
2023/05/30 05:36:14;;;;;;;14.25;4.30;;;;;;;;;;4437937;32;20038;-71
2023/05/30 05:38:39;;;;;;;;;;;;;;;;;;4438045;32;20041;-70
2023/05/30 05:41:04;;;;;;;17.58;5.72;;;;;;;;;;4422740;32;19937;-70
2023/05/30 05:43:29;;;;;;;10.20;3.92;;;;;;;;;;4436791;32;20056;-71
2023/05/30 05:45:55;;;;;;;;;;;;;;;;;;4437014;32;20450;-72
2023/05/30 05:48:20;;;;;;;12.50;4.35;;;;;;;;;;4422983;32;19976;-71
2023/05/30 05:50:45;;;;;;;;;;;;;;;;;;4439996;32;20022;-71
2023/05/30 05:53:11;;;;;;;12.20;4.70;;;;;;;;;;4437202;32;19983;-71
2023/05/30 05:55:36;;;;;;;14.48;5.47;;;;;;;;;;4437438;32;20062;-70
2023/05/30 05:58:01;;;;;;;;;;;;;;;;;;4437065;32;20018;-73
2023/05/30 06:00:26;;;;;;;10.93;4.75;;;;;;;;;;4437551;32;19977;-72
2023/05/30 06:02:52;;;;;;;13.18;3.67;;;;;;;;;;4436505;32;20022;-72
2023/05/30 06:05:17;;;;;;;;;;;;;;;;;;4436875;32;20438;-71
2023/05/30 06:07:42;;;;;;;15.68;4.87;;;;;;;;;;4436089;32;19966;-72
2023/05/30 06:10:07;;;;;;;13.43;4.57;;;;;;;;;;4437336;32;20338;-71
2023/05/30 06:12:33;;;;;;;;;;;;;;;;;;4445183;32;20021;-71
2023/05/30 06:14:58;;;;;;;11.32;4.07;;;;;;;;;;4453710;32;19992;-71
2023/05/30 06:17:23;;;;;;;10.70;4.18;;;;;;;;;;4452352;32;20077;-72
2023/05/30 06:19:51;;;;;;;17.60;4.90;;;;;;;;;;4438268;32;20406;-71
2023/05/30 06:22:17;;;;;;;17.77;5.30;;;;;;;;;;4452804;32;20063;-71
2023/05/30 06:24:42;;;;;;;16.05;3.70;;;;;;;;;;4453342;32;20025;-72
2023/05/30 06:27:07;;;;;;;19.37;4.35;;;;;;;;;;4452028;32;20026;-72
2023/05/30 06:29:33;;;;;;;19.85;4.97;;;;;;;;;;4450200;32;20378;-72
2023/05/30 06:31:58;;;;;;;13.30;3.60;;;;;;;;;;4439285;32;20416;-72
2023/05/30 06:34:23;;;;;;;14.02;4.50;;;;;;;;;;4439406;32;20056;-72
2023/05/30 06:36:49;;;;;;;14.35;3.80;;;;;;;;;;4451535;32;20438;-72
2023/05/30 06:39:15;;;;;;;11.50;3.33;;;;;;;;;;4451665;32;20048;-71
2023/05/30 06:41:42;;;;;;;18.60;4.15;;;;;;;;;;4449943;32;20084;-71
2023/05/30 06:44:07;;;;;;;15.95;4.15;;;;;;;;;;4437988;32;20033;-71
2023/05/30 06:46:32;;;;;;;11.67;3.83;;;;;;;;;;4453018;32;20047;-70
2023/05/30 06:48:58;;;;;;;18.30;4.00;;;;;;;;;;4452130;32;20556;-71
2023/05/30 06:51:23;;;;;;;17.67;4.33;;;;;;;;;;4452059;32;20013;-69
2023/05/30 06:53:48;;;;;;;17.02;4.43;;;;;;;;;;4452571;32;20117;-71
2023/05/30 06:56:13;;;;;;;15.73;4.55;;;;;;;;;;4451160;32;20022;-70
2023/05/30 06:58:39;;;;;;;;;;;;;;;;;;4451889;32;20147;-71
2023/05/30 07:01:04;;;;;;;14.60;5.45;;;;;;;;;;4451471;32;20329;-71
2023/05/30 07:03:29;;;;;;;15.90;4.37;;;;;;;;;;4448205;32;20029;-72
2023/05/30 07:05:54;;;;;;;18.48;4.32;;;;;;;;;;4451407;32;20063;-70
2023/05/30 07:08:20;;;;;;;13.13;4.50;;;;;;;;;;4451256;32;20049;-70
2023/05/30 07:10:45;;;;;;;14.48;4.07;;;;;;;;;;4451331;32;20067;-70
2023/05/30 07:13:10;;;;;;;20.50;3.87;;;;;;;;;;4451223;32;20060;-70
2023/05/30 07:15:35;;;;;;;14.20;4.32;;;;;;;;;;4449868;32;20014;-70
2023/05/30 07:18:01;;;;;;;15.15;4.60;;;;;;;;;;4447907;32;20334;-70
2023/05/30 07:20:26;;;;;;;15.65;4.03;;;;;;;;;;4451628;32;20033;-71
2023/05/30 07:22:51;;;;;;;13.00;4.50;;;;;;;;;;4436703;32;20041;-70
2023/05/30 07:25:17;;;;;;;14.77;4.53;;;;;;;;;;4450879;32;20112;-71
2023/05/30 07:27:42;;;;;;;13.38;3.80;;;;;;;;;;4450902;32;20017;-71
2023/05/30 07:30:07;;;;;;;13.10;4.80;;;;;;;;;;4450406;32;20040;-71
2023/05/30 07:32:32;;;;;;;12.77;4.03;;;;;;;;;;4441626;32;20173;-71
2023/05/30 07:34:57;;;;;;;15.00;5.13;;;;;;;;;;4441895;32;20055;-71
2023/05/30 07:37:23;;;;;;;11.98;4.37;;;;;;;;;;4447857;32;20136;-71
2023/05/30 07:39:48;;;;;;;19.25;3.92;;;;;;;;;;4444030;32;20096;-72
2023/05/30 07:42:13;;;;;;;13.00;4.37;;;;;;;;;;4440015;32;20025;-71
2023/05/30 07:44:38;;;;;;;15.00;4.07;;;;;;;;;;4435468;32;20018;-71
2023/05/30 07:47:04;;;;;;;9.88;3.83;;;;;;;;;;4435398;32;20419;-72
2023/05/30 07:49:29;;;;;;;12.20;4.65;;;;;;;;;;4447126;32;20037;-71
2023/05/30 07:51:54;;;;;;;12.77;3.35;;;;;;;;;;4449951;32;20022;-71
2023/05/30 07:54:19;;;;;;;14.60;3.95;;;;;;;;;;4450241;32;20025;-70
2023/05/30 07:56:44;;;;;;;12.88;4.05;;;;;;;;;;4450910;32;20051;-70
2023/05/30 07:59:10;;;;;;;17.02;4.78;;;;;;;;;;4450704;32;20101;-70
2023/05/30 08:01:35;;;;;;;14.95;3.72;;;;;;;;;;4432478;32;20462;-70
2023/05/30 08:04:00;;;;;;;17.95;3.75;;;;;;;;;;4437897;32;20056;-71
2023/05/30 08:06:25;;;;;;;13.77;4.50;;;;;;;;;;4436901;32;20034;-70
2023/05/30 08:08:50;;;;;;;14.87;4.28;;;;;;;;;;4450563;32;20080;-71
2023/05/30 08:11:16;;;;;;;;;;;;;;;;;;4452147;32;20052;-71
2023/05/30 08:13:43;;;;;;;11.43;4.37;;;;;;;;;;4438272;32;19987;-72
2023/05/30 08:16:10;;;;;;;13.88;3.95;;;;;;;;;;4443978;32;20030;-72
2023/05/30 08:18:36;;;;;;;18.45;5.75;;;;;;;;;;4451085;32;20013;-71
2023/05/30 08:21:01;;;;;;;11.85;4.47;;;;;;;;;;4452927;32;20044;-71
2023/05/30 08:23:26;;;;;;;14.80;4.00;;;;;;;;;;4450716;32;20037;-71
2023/05/30 08:25:52;;;;;;;15.18;4.15;;;;;;;;;;4450119;32;20025;-72
2023/05/30 08:28:17;;;;;;;11.77;4.35;;;;;;;;;;4451118;32;20021;-72
2023/05/30 08:30:50;;;;;;;9.80;4.53;;;;;;;;;;4452501;32;20018;-71
2023/05/30 08:33:16;;;;;;;16.37;4.55;;;;;;;;;;4454842;32;20018;-71
2023/05/30 08:35:41;;;;;;;11.12;3.62;;;;;;;;;;4426060;32;20077;-72
2023/05/30 08:38:06;;;;;;;13.20;4.65;;;;;;;;;;4455507;32;20065;-72
2023/05/30 08:40:33;;;;;;;11.65;3.65;;;;;;;;;;4454452;32;20022;-73
2023/05/30 08:42:58;;;;;;;8.85;3.70;;;;;;;;;;4440116;32;20056;-73
2023/05/30 08:45:23;;;;;;;13.10;4.45;;;;;;;;;;4447079;32;20029;-70
2023/05/30 08:47:52;;;;;;;13.82;4.00;;;;;;;;;;4455875;32;20026;-73
2023/05/30 08:50:20;;;;;;;16.95;4.12;;;;;;;;;;4440143;32;20029;-71
2023/05/30 08:52:45;;;;;;;10.38;4.45;;;;;;;;;;4440710;32;20100;-72
2023/05/30 08:55:11;;;;;;;12.35;4.32;;;;;;;;;;4455478;32;20079;-73
2023/05/30 08:57:55;;;;;;;11.80;4.20;;;;;;;;;;4452922;32;20033;-73
2023/05/30 09:00:21;;;;;;;15.13;4.05;;;;;;;;;;4446329;32;20026;-73
2023/05/30 09:02:49;;;;;;;13.88;3.78;;;;;;;;;;4438051;32;20342;-72
2023/05/30 09:05:16;;;;;;;17.52;4.47;;;;;;;;;;4425119;32;20018;-72
2023/05/30 09:07:42;;;;;;;9.52;4.10;;;;;;;;;;4439308;32;20332;-72
2023/05/30 09:10:07;;;;;;;16.25;4.22;;;;;;;;;;4438660;32;20343;-73
2023/05/30 09:12:33;;;;;;;10.85;4.20;;;;;;;;;;4437301;32;20048;-73
2023/05/30 09:14:58;;;;;;;12.93;4.40;;;;;;;;;;4445445;32;20086;-72
2023/05/30 09:17:23;;;;;;;14.20;4.25;;;;;;;;;;4454728;32;20040;-72
2023/05/30 09:19:48;;;;;;;17.77;4.65;;;;;;;;;;4452589;32;20071;-73
2023/05/30 09:22:15;;;;;;;12.23;4.60;;;;;;;;;;4454262;32;20384;-72
2023/05/30 09:24:55;;;;;;;15.40;4.57;;;;;;;;;;4453451;32;20018;-73
2023/05/30 09:27:20;;;;;;;17.10;4.28;;;;;;;;;;4454514;32;20020;-72
2023/05/30 09:29:45;;;;;;;14.60;3.92;;;;;;;;;;4450428;32;20343;-72
2023/05/30 09:32:11;;;;;;;11.23;3.72;;;;;;;;;;4423314;32;20029;-73
2023/05/30 09:34:36;;;;;;;17.40;4.72;;;;;;;;;;4437485;32;20013;-73
2023/05/30 09:37:04;;;;;;;13.65;4.35;;;;;;;;;;4436962;32;20041;-73
2023/05/30 09:39:29;;;;;;;11.60;4.12;;;;;;;;;;4424433;32;20030;-73
2023/05/30 09:41:55;;;;;;;11.40;4.07;;;;;;;;;;4436353;32;20034;-73
2023/05/30 09:44:20;;;;;;;13.23;4.55;;;;;;;;;;4436006;32;20042;-73
2023/05/30 09:46:45;;;;;;;9.50;4.82;;;;;;;;;;4437058;32;20018;-74
2023/05/30 09:49:14;;;;;;;11.27;3.67;;;;;;;;;;4438851;32;20053;-74
2023/05/30 09:51:39;;;;;;;10.75;4.00;;;;;;;;;;4444630;32;20025;-74
2023/05/30 09:54:05;;;;;;;17.75;4.28;;;;;;;;;;4453771;32;20313;-72
2023/05/30 09:56:40;;;;;;;12.68;4.45;;;;;;;;;;4453144;32;20032;-73
2023/05/30 09:59:06;;;;;;;16.73;4.93;;;;;;;;;;4429768;32;20367;-73
2023/05/30 10:01:42;;;;;;;9.50;3.90;;;;;;;;;;4441472;32;20075;-74
2023/05/30 10:04:11;;;;;;;13.02;3.92;;;;;;;;;;4452615;32;20074;-73
2023/05/30 10:06:38;;;;;;;11.10;4.22;;;;;;;;;;4452002;32;20096;-73
2023/05/30 10:09:04;;;;;;;11.45;4.20;;;;;;;;;;4439854;32;20047;-72
2023/05/30 10:11:29;;;;;;;11.12;4.10;;;;;;;;;;4453376;32;20025;-73
2023/05/30 10:13:55;;;;;;;10.13;3.80;;;;;;;;;;4451806;32;20044;-74
2023/05/30 10:16:21;;;;;;;9.38;3.28;;;;;;;;;;4438730;32;20124;-73
2023/05/30 10:18:52;;;;;;;17.55;5.20;;;;;;;;;;4452485;32;20044;-73
2023/05/30 10:21:20;;;;;;;15.25;5.15;;;;;;;;;;4439115;32;20040;-74
2023/05/30 10:23:46;;;;;;;11.70;4.05;;;;;;;;;;4453472;32;20022;-72
2023/05/30 10:26:12;;;;;;;8.65;3.90;;;;;;;;;;4449217;32;20120;-73
2023/05/30 10:28:38;;;;;;;9.75;3.47;;;;;;;;;;4437349;32;20021;-73
2023/05/30 10:31:04;;;;;;;10.20;3.62;;;;;;;;;;4423606;32;20043;-74
2023/05/30 10:33:34;;;;;;;10.88;3.40;;;;;;;;;;4436945;32;20053;-73
2023/05/30 10:36:00;;;;;;;10.32;3.33;;;;;;;;;;4437804;32;20084;-73
2023/05/30 10:38:27;;;;;;;8.30;3.47;;;;;;;;;;4439714;32;20018;-73
2023/05/30 10:41:01;;;;;;;7.37;3.37;;;;;;;;;;4440925;32;20060;-73
2023/05/30 10:43:29;;;;;;;7.40;3.17;;;;;;;;;;4438760;32;20091;-73
2023/05/30 10:46:03;;;;;;;8.32;3.08;;;;;;;;;;4436552;32;20359;-74
2023/05/30 10:48:34;;;;;;;6.62;2.85;;;;;;;;;;4436570;32;20386;-73
2023/05/30 10:51:00;;;;;;;5.95;3.20;;;;;;;;;;4435908;32;20022;-73
2023/05/30 10:53:25;;;;;;;7.85;2.83;;;;;;;;;;4448222;32;20463;-73
2023/05/30 10:55:50;;;;;;;5.60;2.95;;;;;;;;;;4451273;32;20087;-73
2023/05/30 10:58:36;;;;;;;12.05;4.03;;;;;;;;;;4437258;32;20332;-74
2023/05/30 11:01:21;;;;;;;9.80;4.22;;;;;;;;;;4435573;32;20136;-73
2023/05/30 11:03:46;;;;;;;7.93;3.15;;;;;;;;;;4436415;32;20117;-72
2023/05/30 11:06:11;;;;;;;4.85;2.90;;;;;;;;;;4421565;32;20018;-72
2023/05/30 11:08:38;;;;;;;9.38;3.40;;;;;;;;;;4436662;32;20021;-73
2023/05/30 11:11:14;;;;;;;4.75;2.80;;;;;;;;;;4435817;32;20090;-73
2023/05/30 11:13:43;;;;;;;4.43;2.92;;;;;;;;;;4437079;32;20071;-72
2023/05/30 11:16:23;;;;;;;6.53;3.20;;;;;;;;;;4438034;32;20421;-73
2023/05/30 11:18:50;;;;;;;4.20;2.70;;;;;;;;;;4450930;32;20052;-72
2023/05/30 11:21:15;;;;;;;6.90;3.03;;;;;;;;;;4437210;32;20066;-72
2023/05/30 11:23:59;;;;;;;4.57;3.10;;;;;;;;;;4438061;32;20049;-72
2023/05/30 11:26:44;;;;;;;9.27;3.97;;;;;;;;;;4441223;32;20021;-73
2023/05/30 11:29:31;;;;;;;5.57;3.25;;;;;;;;;;4451171;32;20021;-74
2023/05/30 11:31:57;;;;;;;6.40;3.17;;;;;;;;;;4450793;32;20024;-74
2023/05/30 11:34:22;;;;;;;4.95;2.60;;;;;;;;;;4436768;32;20098;-73
2023/05/30 11:36:48;;;;;;;4.80;2.65;;;;;;;;;;4436536;32;20059;-73
2023/05/30 11:39:13;;;;;;;4.32;2.72;;;;;;;;;;4451920;32;20021;-72
2023/05/30 11:41:38;;;;;;;5.55;2.97;;;;;;;;;;4448147;32;20148;-72
2023/05/30 11:44:04;;;;;;;4.72;2.75;;;;;;;;;;4436365;32;20041;-73
2023/05/30 11:46:29;;;;;;;4.68;2.60;;;;;;;;;;4436315;32;20459;-72
2023/05/30 11:49:03;;;;;;;5.53;3.10;;;;;;;;;;4436632;32;20033;-72
2023/05/30 11:51:30;;;;;;;7.15;3.10;;;;;;;;;;4435758;32;20443;-72
2023/05/30 11:53:55;;;;;;;4.82;2.75;;;;;;;;;;4434867;32;20038;-74
2023/05/30 11:56:20;;;;;;;6.22;3.12;;;;;;;;;;4437383;32;20410;-73
2023/05/30 11:58:49;;;;;;;5.35;3.60;;;;;;;;;;4451131;32;20018;-74
2023/05/30 12:01:14;;;;;;;6.05;3.10;;;;;;;;;;4451038;32;20099;-72
2023/05/30 12:03:40;;;;;;;7.28;3.47;;;;;;;;;;4450568;32;20444;-73
2023/05/30 12:06:14;;;;;;;6.07;3.90;;;;;;;;;;4453775;32;20051;-73
2023/05/30 12:08:43;;;;;;;4.47;3.15;;;;;;;;;;4453516;32;20064;-72
2023/05/30 12:11:12;;;;;;;6.25;3.40;;;;;;;;;;4453424;32;20033;-72
2023/05/30 12:13:37;;;;;;;9.68;4.00;;;;;;;;;;4456136;32;20017;-72
2023/05/30 12:16:03;;;;;;;5.55;3.45;;;;;;;;;;4439960;32;20173;-72
2023/05/30 12:18:28;;;;;;;5.62;3.28;;;;;;;;;;4454242;32;20043;-73
2023/05/30 12:20:53;;;;;;;6.22;3.45;;;;;;;;;;4447144;32;20092;-73
2023/05/30 12:23:24;;;;;;;5.45;3.15;;;;;;;;;;4440075;32;20060;-73
2023/05/30 12:25:51;;;;;;;5.40;2.58;;;;;;;;;;4453122;32;20029;-73
2023/05/30 12:28:17;;;;;;;6.85;3.67;;;;;;;;;;4454128;32;20014;-73
2023/05/30 12:30:42;;;;;;;4.40;3.53;;;;;;;;;;4454313;32;20688;-73
2023/05/30 12:33:18;;;;;;;5.50;3.00;;;;;;;;;;4455323;32;20025;-73
2023/05/30 12:35:44;;;;;;;4.62;3.20;;;;;;;;;;4453164;32;20151;-74
2023/05/30 12:38:11;;;;;;;5.03;3.00;;;;;;;;;;4453907;32;20387;-71
2023/05/30 12:40:40;;;;;;;5.75;2.60;;;;;;;;;;4456603;32;20104;-72
2023/05/30 12:43:06;;;;;;;4.72;3.12;;;;;;;;;;4455153;32;20026;-73
2023/05/30 12:45:33;;;;;;;6.78;3.03;;;;;;;;;;4453621;32;20052;-72
2023/05/30 12:47:58;;;;;;;4.07;2.95;;;;;;;;;;4455229;32;20332;-73
2023/05/30 12:50:23;;;;;;;6.35;3.12;;;;;;;;;;4454890;32;20115;-74
2023/05/30 12:52:49;;;;;;;4.70;2.53;;;;;;;;;;4454024;32;20013;-73
2023/05/30 12:55:14;;;;;;;3.72;2.47;;;;;;;;;;4453744;32;20120;-72
2023/05/30 12:57:40;;;;;;;5.87;2.70;;;;;;;;;;4459285;32;20403;-72
2023/05/30 13:00:08;;;;;;;4.40;2.05;;;;;;;;;;4456094;32;20085;-74
2023/05/30 13:02:35;;;;;;;2.65;1.87;;;;;;;;;;4453069;32;20022;-73
2023/05/30 13:05:00;;;;;;;6.45;1.90;;;;;;;;;;4453570;32;20018;-74
2023/05/30 13:07:25;;;;;;;4.20;1.83;;;;;;;;;;4441295;32;20459;-74
2023/05/30 13:09:51;;;;;;;2.42;1.75;;;;;;;;;;4438823;32;20398;-74
2023/05/30 13:12:17;;;;;;;1.62;1.50;;;;;;;;;;4443937;32;20025;-73
2023/05/30 13:14:43;;;;;;;2.45;1.77;;;;;;;;;;4425813;32;20074;-73
2023/05/30 13:17:08;;;;;;;2.60;1.50;;;;;;;;;;4436216;32;20030;-74
2023/05/30 13:19:34;;;;;;;3.30;2.10;;;;;;;;;;4437627;32;20033;-74
2023/05/30 13:21:59;;;;;;;10.57;2.20;;;;;;;;;;4423693;32;20053;-73
2023/05/30 13:24:25;;;;;;;3.85;2.33;;;;;;;;;;4437246;32;20374;-74
2023/05/30 13:26:50;;;;;;;4.82;1.75;;;;;;;;;;4438757;32;20046;-72
2023/05/30 13:29:18;;;;;;;5.30;1.98;;;;;;;;;;4449750;32;20062;-73
2023/05/30 13:31:44;;;;;;;2.83;1.50;;;;;;;;;;4452678;32;20331;-73
2023/05/30 13:34:09;;;;;;;2.30;1.70;;;;;;;;;;4438235;32;20018;-73
2023/05/30 13:36:35;;;;;;;3.80;1.73;;;;;;;;;;4452766;32;20468;-73
2023/05/30 13:39:00;;;;;;;2.55;1.83;;;;;;;;;;4437184;32;20013;-73
2023/05/30 13:41:25;;;;;;;3.00;2.08;;;;;;;;;;4437219;32;20063;-73
2023/05/30 13:43:51;;;;;;;2.87;1.90;;;;;;;;;;4436633;32;20087;-73
2023/05/30 13:46:16;;;;;;;2.35;1.85;;;;;;;;;;4438146;32;20022;-73
2023/05/30 13:48:42;;;;;;;3.83;2.20;;;;;;;;;;4438960;32;20017;-73
2023/05/30 13:51:07;;;;;;;2.45;1.92;;;;;;;;;;4437446;32;20030;-72
2023/05/30 13:53:32;;;;;;;3.15;1.60;;;;;;;;;;4437398;32;20022;-72
2023/05/30 13:55:58;;;;;;;3.72;1.60;;;;;;;;;;4443111;32;20084;-73
2023/05/30 13:58:23;;;;;;;2.47;1.90;;;;;;;;;;4438253;32;20417;-73
2023/05/30 14:00:48;;;;;;;1.93;1.73;;;;;;;;;;4437433;32;20037;-72
2023/05/30 14:03:14;;;;;;;2.60;1.60;;;;;;;;;;4437323;32;20238;-73
2023/05/30 14:05:39;;;;;;;2.33;1.80;;;;;;;;;;4436556;32;20105;-73
2023/05/30 14:08:04;;;;;;;6.05;2.75;;;;;;;;;;4439253;32;20088;-73
2023/05/30 14:10:30;;;;;;;2.70;2.20;;;;;;;;;;4451776;32;20022;-73
2023/05/30 14:12:55;;;;;;;4.70;2.28;;;;;;;;;;4453535;32;20086;-73
2023/05/30 14:15:21;;;;;;;4.43;2.10;;;;;;;;;;4449699;32;20099;-74
2023/05/30 14:17:46;;;;;;;2.92;2.35;;;;;;;;;;4436225;32;20021;-73
2023/05/30 14:20:11;;;;;;;9.40;2.35;;;;;;;;;;4436867;32;20352;-72
2023/05/30 14:22:37;;;;;;;3.28;2.25;;;;;;;;;;4437386;32;20030;-73
2023/05/30 14:25:03;;;;;;;3.83;1.77;;;;;;;;;;4435949;32;20036;-73
2023/05/30 14:27:30;;;;;;;7.00;2.40;;;;;;;;;;4437853;32;20074;-73
2023/05/30 14:29:55;;;;;;;5.65;2.37;;;;;;;;;;4434993;32;20049;-72
2023/05/30 14:32:20;;;;;;;3.63;2.00;;;;;;;;;;4440955;32;20054;-73
2023/05/30 14:34:45;;;;;;;2.75;1.95;;;;;;;;;;4439186;32;20399;-73
2023/05/30 14:37:11;;;;;;;3.95;2.03;;;;;;;;;;4438389;32;20167;-71
2023/05/30 14:39:36;;;;;;;3.45;2.10;;;;;;;;;;4448969;32;20499;-73
2023/05/30 14:42:01;;;;;;;2.50;1.80;;;;;;;;;;4439481;32;20371;-73
2023/05/30 14:44:26;;;;;;;2.70;2.10;;;;;;;;;;4452297;32;20077;-74